createdAt,value
2017-08-20T00:00:06.699Z,0
2017-08-20T00:01:15.742Z,0
2017-08-20T00:02:24.702Z,0
2017-08-20T00:03:33.726Z,0
2017-08-20T00:04:42.793Z,0
2017-08-20T00:05:51.837Z,0
2017-08-20T00:07:00.917Z,0
2017-08-20T00:08:10.071Z,0
2017-08-20T00:09:19.562Z,0
2017-08-20T00:10:28.696Z,0
2017-08-20T00:11:37.808Z,0
2017-08-20T00:12:46.759Z,0
2017-08-20T00:13:55.784Z,0
2017-08-20T00:15:04.735Z,0
2017-08-20T00:16:13.827Z,0
2017-08-20T00:17:22.850Z,0
2017-08-20T00:18:31.994Z,0
2017-08-20T00:19:40.950Z,0
2017-08-20T00:20:49.956Z,0
2017-08-20T00:21:59.044Z,0
2017-08-20T00:23:08.002Z,0
2017-08-20T00:24:16.951Z,0
2017-08-20T00:25:25.917Z,0
2017-08-20T00:26:35.000Z,0
2017-08-20T00:27:43.953Z,0
2017-08-20T00:28:53.361Z,0
2017-08-20T00:30:02.309Z,0
2017-08-20T00:31:11.327Z,0
2017-08-20T00:32:20.275Z,0
2017-08-20T00:33:29.371Z,0
2017-08-20T00:34:38.316Z,0
2017-08-20T00:35:47.752Z,0
2017-08-20T00:36:56.769Z,0
2017-08-20T00:38:05.869Z,0
2017-08-20T00:39:14.987Z,0
2017-08-20T00:40:23.939Z,0
2017-08-20T00:41:32.986Z,0
2017-08-20T00:42:41.975Z,0
2017-08-20T00:43:51.075Z,0
2017-08-20T00:45:00.063Z,0
2017-08-20T00:46:09.142Z,0
2017-08-20T00:47:18.094Z,0
2017-08-20T00:48:27.147Z,0
2017-08-20T00:49:36.102Z,0
2017-08-20T00:50:45.218Z,0
2017-08-20T00:51:54.163Z,0
2017-08-20T00:53:03.326Z,0
2017-08-20T00:54:12.277Z,0
2017-08-20T00:55:21.607Z,0
2017-08-20T00:56:30.695Z,0
2017-08-20T00:57:39.645Z,0
2017-08-20T00:58:48.692Z,0
2017-08-20T00:59:57.703Z,0
2017-08-20T01:01:06.736Z,0
2017-08-20T01:02:16.062Z,0
2017-08-20T01:03:25.132Z,0
2017-08-20T01:04:34.100Z,0
2017-08-20T01:05:43.176Z,0
2017-08-20T01:06:52.125Z,0
2017-08-20T01:08:01.293Z,0
2017-08-20T01:09:10.242Z,0
2017-08-20T01:10:19.298Z,0
2017-08-20T01:11:28.244Z,0
2017-08-20T01:12:37.304Z,0
2017-08-20T01:13:46.342Z,0
2017-08-20T01:14:55.429Z,0
2017-08-20T01:16:04.531Z,0
2017-08-20T01:17:13.548Z,0
2017-08-20T01:18:22.584Z,0
2017-08-20T01:19:31.590Z,0
2017-08-20T01:20:40.765Z,0
2017-08-20T01:21:49.718Z,0
2017-08-20T01:22:58.778Z,0
2017-08-20T01:24:07.724Z,0
2017-08-20T01:25:16.801Z,0
2017-08-20T01:26:25.759Z,0
2017-08-20T01:27:34.974Z,0
2017-08-20T01:28:43.929Z,0
2017-08-20T01:29:53.034Z,0
2017-08-20T01:31:02.053Z,0
2017-08-20T01:32:11.003Z,0
2017-08-20T01:33:19.993Z,0
2017-08-20T01:34:29.316Z,0
2017-08-20T01:35:38.269Z,0
2017-08-20T01:36:47.291Z,0
2017-08-20T01:37:56.367Z,0
2017-08-20T01:39:05.384Z,0
2017-08-20T01:40:14.519Z,0
2017-08-20T01:41:23.468Z,0
2017-08-20T01:42:32.460Z,0
2017-08-20T01:43:41.408Z,0
2017-08-20T01:44:50.761Z,0
2017-08-20T01:45:59.717Z,0
2017-08-20T01:47:08.823Z,0
2017-08-20T01:48:17.847Z,0
2017-08-20T01:49:27.118Z,0
2017-08-20T01:50:36.179Z,0
2017-08-20T01:51:45.236Z,0
2017-08-20T01:52:54.227Z,0
2017-08-20T01:54:03.179Z,0
2017-08-20T01:55:12.245Z,0
2017-08-20T01:56:21.197Z,0
2017-08-20T01:57:30.294Z,0
2017-08-20T01:58:39.244Z,0
2017-08-20T01:59:48.455Z,0
2017-08-20T02:00:57.455Z,0
2017-08-20T02:02:06.641Z,0
2017-08-20T02:03:15.594Z,0
2017-08-20T02:04:24.553Z,0
2017-08-20T02:05:33.508Z,0
2017-08-20T02:06:42.460Z,0
2017-08-20T02:07:51.411Z,0
2017-08-20T02:09:00.359Z,0
2017-08-20T02:10:09.638Z,0
2017-08-20T02:11:18.911Z,0
2017-08-20T02:12:27.869Z,0
2017-08-20T02:13:36.819Z,0
2017-08-20T02:14:45.768Z,0
2017-08-20T02:15:54.712Z,0
2017-08-20T02:17:03.747Z,0
2017-08-20T02:18:12.700Z,0
2017-08-20T02:19:21.648Z,0
2017-08-20T02:20:30.607Z,0
2017-08-20T02:21:39.555Z,0
2017-08-20T02:22:48.507Z,0
2017-08-20T02:23:57.453Z,0
2017-08-20T02:25:06.410Z,0
2017-08-20T02:26:15.361Z,0
2017-08-20T02:27:24.315Z,0
2017-08-20T02:28:33.274Z,0
2017-08-20T02:29:42.226Z,0
2017-08-20T02:30:51.824Z,0
2017-08-20T02:32:00.771Z,0
2017-08-20T02:33:09.720Z,0
2017-08-20T02:34:18.675Z,0
2017-08-20T02:35:27.630Z,0
2017-08-20T02:36:36.586Z,0
2017-08-20T02:37:45.865Z,0
2017-08-20T02:38:54.820Z,0
2017-08-20T02:40:03.776Z,0
2017-08-20T02:41:12.738Z,0
2017-08-20T02:42:21.700Z,0
2017-08-20T02:43:30.651Z,0
2017-08-20T02:44:39.606Z,0
2017-08-20T02:45:48.557Z,0
2017-08-20T02:46:57.840Z,0
2017-08-20T02:48:07.121Z,0
2017-08-20T02:49:16.070Z,0
2017-08-20T02:50:25.023Z,0
2017-08-20T02:51:33.975Z,0
2017-08-20T02:52:42.923Z,0
2017-08-20T02:53:51.876Z,0
2017-08-20T02:55:00.826Z,0
2017-08-20T02:56:09.770Z,0
2017-08-20T02:57:18.720Z,0
2017-08-20T02:58:27.675Z,0
2017-08-20T02:59:36.639Z,0
2017-08-20T03:00:45.605Z,0
2017-08-20T03:01:54.554Z,0
2017-08-20T03:03:03.500Z,0
2017-08-20T03:04:12.784Z,0
2017-08-20T03:05:21.731Z,0
2017-08-20T03:06:30.683Z,0
2017-08-20T03:07:39.645Z,0
2017-08-20T03:08:48.598Z,0
2017-08-20T03:09:57.554Z,0
2017-08-20T03:11:06.510Z,0
2017-08-20T03:12:15.461Z,0
2017-08-20T03:13:24.420Z,0
2017-08-20T03:14:33.367Z,0
2017-08-20T03:15:42.315Z,0
2017-08-20T03:16:51.267Z,0
2017-08-20T03:18:00.218Z,0
2017-08-20T03:19:09.173Z,0
2017-08-20T03:20:18.125Z,0
2017-08-20T03:21:27.082Z,0
2017-08-20T03:22:36.034Z,0
2017-08-20T03:23:44.981Z,0
2017-08-20T03:24:53.931Z,0
2017-08-20T03:26:02.887Z,0
2017-08-20T03:27:11.843Z,0
2017-08-20T03:28:21.116Z,0
2017-08-20T03:29:30.067Z,0
2017-08-20T03:30:39.016Z,0
2017-08-20T03:31:47.978Z,0
2017-08-20T03:32:56.926Z,0
2017-08-20T03:34:05.900Z,0
2017-08-20T03:35:14.855Z,0
2017-08-20T03:36:23.800Z,0
2017-08-20T03:37:32.755Z,4
2017-08-20T03:38:41.708Z,4
2017-08-20T03:39:50.658Z,0
2017-08-20T03:40:59.609Z,4
2017-08-20T03:42:08.561Z,4
2017-08-20T03:43:17.510Z,4
2017-08-20T03:44:26.453Z,4
2017-08-20T03:45:35.405Z,4
2017-08-20T03:46:44.356Z,4
2017-08-20T03:47:53.629Z,8
2017-08-20T03:49:02.576Z,8
2017-08-20T03:50:11.523Z,8
2017-08-20T03:51:20.475Z,12
2017-08-20T03:52:29.434Z,12
2017-08-20T03:53:38.387Z,12
2017-08-20T03:54:47.335Z,12
2017-08-20T03:55:56.601Z,12
2017-08-20T03:57:05.545Z,16
2017-08-20T03:58:14.489Z,16
2017-08-20T03:59:23.435Z,20
2017-08-20T04:00:32.385Z,20
2017-08-20T04:01:41.330Z,20
2017-08-20T04:02:50.281Z,24
2017-08-20T04:03:59.229Z,24
2017-08-20T04:05:08.179Z,28
2017-08-20T04:06:17.450Z,28
2017-08-20T04:07:26.404Z,32
2017-08-20T04:08:35.353Z,32
2017-08-20T04:09:44.302Z,36
2017-08-20T04:10:53.259Z,36
2017-08-20T04:12:02.213Z,36
2017-08-20T04:13:11.171Z,40
2017-08-20T04:14:20.125Z,40
2017-08-20T04:15:29.076Z,40
2017-08-20T04:16:38.021Z,44
2017-08-20T04:17:46.969Z,44
2017-08-20T04:18:55.915Z,48
2017-08-20T04:20:04.865Z,48
2017-08-20T04:21:13.816Z,56
2017-08-20T04:22:22.770Z,60
2017-08-20T04:23:31.720Z,60
2017-08-20T04:24:40.666Z,64
2017-08-20T04:25:49.616Z,68
2017-08-20T04:26:58.581Z,64
2017-08-20T04:28:07.542Z,72
2017-08-20T04:29:16.820Z,72
2017-08-20T04:30:25.796Z,76
2017-08-20T04:31:34.744Z,76
2017-08-20T04:32:43.693Z,80
2017-08-20T04:33:52.639Z,84
2017-08-20T04:35:01.588Z,88
2017-08-20T04:36:10.535Z,92
2017-08-20T04:37:19.487Z,96
2017-08-20T04:38:28.435Z,100
2017-08-20T04:39:37.706Z,108
2017-08-20T04:40:46.651Z,112
2017-08-20T04:41:55.596Z,112
2017-08-20T04:43:04.543Z,112
2017-08-20T04:44:13.497Z,116
2017-08-20T04:45:22.443Z,124
2017-08-20T04:46:31.390Z,132
2017-08-20T04:47:40.337Z,136
2017-08-20T04:48:49.283Z,140
2017-08-20T04:49:58.238Z,140
2017-08-20T04:51:07.194Z,144
2017-08-20T04:52:16.151Z,144
2017-08-20T04:53:25.099Z,148
2017-08-20T04:54:34.054Z,152
2017-08-20T04:55:43.008Z,160
2017-08-20T04:56:51.960Z,164
2017-08-20T04:58:00.907Z,164
2017-08-20T04:59:09.865Z,168
2017-08-20T05:00:18.830Z,172
2017-08-20T05:01:28.123Z,172
2017-08-20T05:02:37.075Z,176
2017-08-20T05:03:46.030Z,184
2017-08-20T05:04:54.981Z,192
2017-08-20T05:06:03.930Z,196
2017-08-20T05:07:12.883Z,200
2017-08-20T05:08:21.833Z,196
2017-08-20T05:09:30.795Z,200
2017-08-20T05:10:39.748Z,200
2017-08-20T05:11:48.697Z,204
2017-08-20T05:12:57.653Z,204
2017-08-20T05:14:06.600Z,212
2017-08-20T05:15:15.543Z,220
2017-08-20T05:16:24.499Z,228
2017-08-20T05:17:33.447Z,236
2017-08-20T05:18:42.404Z,244
2017-08-20T05:19:51.358Z,256
2017-08-20T05:21:00.306Z,260
2017-08-20T05:22:09.260Z,264
2017-08-20T05:23:18.212Z,276
2017-08-20T05:24:27.161Z,284
2017-08-20T05:25:36.433Z,288
2017-08-20T05:26:45.385Z,288
2017-08-20T05:27:54.330Z,288
2017-08-20T05:29:03.281Z,296
2017-08-20T05:30:12.240Z,316
2017-08-20T05:31:21.194Z,316
2017-08-20T05:32:30.139Z,324
2017-08-20T05:33:39.082Z,344
2017-08-20T05:34:48.027Z,348
2017-08-20T05:35:56.982Z,360
2017-08-20T05:37:05.932Z,360
2017-08-20T05:38:14.883Z,364
2017-08-20T05:39:23.839Z,376
2017-08-20T05:40:32.786Z,376
2017-08-20T05:41:42.056Z,376
2017-08-20T05:42:51.008Z,388
2017-08-20T05:43:59.954Z,408
2017-08-20T05:45:08.901Z,416
2017-08-20T05:46:17.853Z,424
2017-08-20T05:47:26.808Z,424
2017-08-20T05:48:35.756Z,420
2017-08-20T05:49:44.703Z,428
2017-08-20T05:50:53.650Z,444
2017-08-20T05:52:02.608Z,460
2017-08-20T05:53:11.559Z,468
2017-08-20T05:54:20.507Z,472
2017-08-20T05:55:29.473Z,476
2017-08-20T05:56:38.437Z,480
2017-08-20T05:57:47.386Z,488
2017-08-20T05:58:56.338Z,500
2017-08-20T06:00:05.286Z,504
2017-08-20T06:01:14.240Z,508
2017-08-20T06:02:23.192Z,508
2017-08-20T06:03:32.137Z,512
2017-08-20T06:04:41.106Z,524
2017-08-20T06:05:50.385Z,532
2017-08-20T06:06:59.335Z,548
2017-08-20T06:08:08.284Z,552
2017-08-20T06:09:17.228Z,552
2017-08-20T06:10:26.179Z,564
2017-08-20T06:11:35.136Z,572
2017-08-20T06:12:44.084Z,588
2017-08-20T06:13:53.074Z,588
2017-08-20T06:15:02.045Z,604
2017-08-20T06:16:11.330Z,600
2017-08-20T06:17:20.279Z,612
2017-08-20T06:18:29.227Z,620
2017-08-20T06:19:38.182Z,604
2017-08-20T06:20:47.132Z,604
2017-08-20T06:21:56.082Z,600
2017-08-20T06:23:05.040Z,580
2017-08-20T06:24:13.991Z,584
2017-08-20T06:25:22.943Z,580
2017-08-20T06:26:31.886Z,580
2017-08-20T06:27:41.161Z,588
2017-08-20T06:28:50.106Z,592
2017-08-20T06:29:59.061Z,604
2017-08-20T06:31:08.019Z,596
2017-08-20T06:32:16.966Z,608
2017-08-20T06:33:25.932Z,616
2017-08-20T06:34:34.879Z,612
2017-08-20T06:35:43.825Z,620
2017-08-20T06:36:52.775Z,628
2017-08-20T06:38:01.719Z,620
2017-08-20T06:39:10.668Z,628
2017-08-20T06:40:19.618Z,636
2017-08-20T06:41:28.581Z,632
2017-08-20T06:42:37.538Z,632
2017-08-20T06:43:46.489Z,628
2017-08-20T06:44:55.439Z,648
2017-08-20T06:46:04.395Z,664
2017-08-20T06:47:13.344Z,644
2017-08-20T06:48:22.300Z,648
2017-08-20T06:49:31.573Z,668
2017-08-20T06:50:40.518Z,672
2017-08-20T06:51:49.468Z,676
2017-08-20T06:52:58.424Z,688
2017-08-20T06:54:07.665Z,712
2017-08-20T06:55:16.618Z,728
2017-08-20T06:56:25.787Z,712
2017-08-20T06:57:34.734Z,704
2017-08-20T06:58:43.682Z,696
2017-08-20T06:59:52.634Z,688
2017-08-20T07:01:01.600Z,704
2017-08-20T07:02:10.550Z,716
2017-08-20T07:03:19.827Z,716
2017-08-20T07:04:28.779Z,712
2017-08-20T07:05:37.730Z,708
2017-08-20T07:06:46.685Z,712
2017-08-20T07:07:55.951Z,732
2017-08-20T07:09:04.900Z,732
2017-08-20T07:10:13.852Z,736
2017-08-20T07:11:22.822Z,744
2017-08-20T07:12:31.789Z,744
2017-08-20T07:13:40.780Z,748
2017-08-20T07:14:49.731Z,736
2017-08-20T07:15:58.677Z,752
2017-08-20T07:17:07.701Z,764
2017-08-20T07:18:16.655Z,812
2017-08-20T07:19:25.938Z,780
2017-08-20T07:20:34.889Z,768
2017-08-20T07:21:43.845Z,772
2017-08-20T07:22:52.799Z,780
2017-08-20T07:24:01.756Z,772
2017-08-20T07:25:11.029Z,772
2017-08-20T07:26:19.976Z,776
2017-08-20T07:27:28.944Z,784
2017-08-20T07:28:38.866Z,796
2017-08-20T07:29:47.929Z,808
2017-08-20T07:30:56.939Z,808
2017-08-20T07:32:05.932Z,816
2017-08-20T07:33:14.955Z,840
2017-08-20T07:34:24.029Z,844
2017-08-20T07:35:33.046Z,840
2017-08-20T07:36:42.043Z,852
2017-08-20T07:37:51.099Z,860
2017-08-20T07:39:00.337Z,880
2017-08-20T07:40:09.288Z,880
2017-08-20T07:41:18.244Z,872
2017-08-20T07:42:27.193Z,880
2017-08-20T07:43:36.151Z,880
2017-08-20T07:44:45.098Z,900
2017-08-20T07:45:54.053Z,868
2017-08-20T07:47:03.012Z,856
2017-08-20T07:48:11.973Z,872
2017-08-20T07:49:21.008Z,880
2017-08-20T07:50:29.955Z,896
2017-08-20T07:51:38.967Z,900
2017-08-20T07:52:47.923Z,908
2017-08-20T07:53:56.905Z,932
2017-08-20T07:55:05.861Z,960
2017-08-20T07:56:15.232Z,968
2017-08-20T07:57:24.273Z,992
2017-08-20T07:58:33.325Z,1008
2017-08-20T07:59:42.275Z,1016
2017-08-20T08:00:51.225Z,1032
2017-08-20T08:02:00.173Z,1084
2017-08-20T08:03:09.127Z,1088
2017-08-20T08:04:18.086Z,1108
2017-08-20T08:05:27.361Z,1148
2017-08-20T08:06:36.472Z,1132
2017-08-20T08:07:45.430Z,1108
2017-08-20T08:08:54.382Z,1132
2017-08-20T08:10:03.333Z,1168
2017-08-20T08:11:12.414Z,1312
2017-08-20T08:12:21.364Z,1372
2017-08-20T08:13:30.338Z,1304
2017-08-20T08:14:39.319Z,1404
2017-08-20T08:15:48.608Z,1604
2017-08-20T08:16:57.585Z,1964
2017-08-20T08:18:06.571Z,2096
2017-08-20T08:19:15.873Z,2284
2017-08-20T08:20:24.846Z,2264
2017-08-20T08:21:33.824Z,2340
2017-08-20T08:22:42.799Z,2556
2017-08-20T08:23:51.770Z,2236
2017-08-20T08:25:00.738Z,1872
2017-08-20T08:26:09.706Z,1908
2017-08-20T08:27:19.381Z,1844
2017-08-20T08:28:28.333Z,952
2017-08-20T08:29:37.352Z,1724
2017-08-20T08:30:46.306Z,1620
2017-08-20T08:31:55.576Z,1268
2017-08-20T08:33:04.535Z,1248
2017-08-20T08:34:13.487Z,1244
2017-08-20T08:35:22.449Z,1260
2017-08-20T08:36:31.399Z,1340
2017-08-20T08:37:40.368Z,1252
2017-08-20T08:38:49.344Z,1316
2017-08-20T08:39:58.322Z,1364
2017-08-20T08:41:07.302Z,1356
2017-08-20T08:42:16.273Z,1332
2017-08-20T08:43:25.246Z,1328
2017-08-20T08:44:34.233Z,1312
2017-08-20T08:45:43.202Z,1268
2017-08-20T08:46:52.181Z,1272
2017-08-20T08:48:01.164Z,1304
2017-08-20T08:49:10.145Z,1320
2017-08-20T08:50:19.122Z,1284
2017-08-20T08:51:28.092Z,1264
2017-08-20T08:52:37.066Z,1304
2017-08-20T08:53:46.041Z,1544
2017-08-20T08:54:55.023Z,1436
2017-08-20T08:56:03.995Z,1352
2017-08-20T08:57:12.964Z,1344
2017-08-20T08:58:21.940Z,1368
2017-08-20T08:59:30.916Z,1452
2017-08-20T09:00:39.898Z,1372
2017-08-20T09:01:48.873Z,1824
2017-08-20T09:02:57.933Z,2464
2017-08-20T09:04:07.022Z,2516
2017-08-20T09:05:15.974Z,1872
2017-08-20T09:06:24.921Z,1480
2017-08-20T09:07:33.871Z,1412
2017-08-20T09:08:42.816Z,1724
2017-08-20T09:09:51.769Z,1776
2017-08-20T09:11:00.716Z,1784
2017-08-20T09:12:09.665Z,2700
2017-08-20T09:13:18.629Z,1284
2017-08-20T09:14:27.926Z,1184
2017-08-20T09:15:37.280Z,1616
2017-08-20T09:16:46.279Z,1280
2017-08-20T09:17:55.239Z,768
2017-08-20T09:19:04.353Z,2052
2017-08-20T09:20:13.301Z,2256
2017-08-20T09:21:22.251Z,2348
2017-08-20T09:22:31.204Z,1240
2017-08-20T09:23:40.551Z,640
2017-08-20T09:24:49.645Z,524
2017-08-20T09:25:58.713Z,940
2017-08-20T09:27:07.682Z,1544
2017-08-20T09:28:16.733Z,1884
2017-08-20T09:29:25.723Z,2104
2017-08-20T09:30:34.763Z,1952
2017-08-20T09:31:43.786Z,952
2017-08-20T09:32:52.750Z,556
2017-08-20T09:34:01.704Z,484
2017-08-20T09:35:10.657Z,636
2017-08-20T09:36:19.607Z,848
2017-08-20T09:37:28.891Z,664
2017-08-20T09:38:37.846Z,588
2017-08-20T09:39:46.796Z,856
2017-08-20T09:40:55.748Z,1548
2017-08-20T09:42:04.704Z,1924
2017-08-20T09:43:13.671Z,1456
2017-08-20T09:44:23.140Z,2116
2017-08-20T09:45:32.090Z,2588
2017-08-20T09:46:41.095Z,2512
2017-08-20T09:47:50.139Z,1988
2017-08-20T09:48:59.174Z,1292
2017-08-20T09:50:08.135Z,1440
2017-08-20T09:51:17.126Z,1424
2017-08-20T09:52:26.078Z,1460
2017-08-20T09:53:35.034Z,1808
2017-08-20T09:54:43.982Z,1468
2017-08-20T09:55:52.959Z,1828
2017-08-20T09:57:01.914Z,1800
2017-08-20T09:58:10.866Z,2072
2017-08-20T09:59:19.827Z,2716
2017-08-20T10:00:28.778Z,2656
2017-08-20T10:01:38.091Z,2572
2017-08-20T10:02:47.042Z,2496
2017-08-20T10:03:55.995Z,2464
2017-08-20T10:05:04.998Z,2752
2017-08-20T10:06:13.960Z,2980
2017-08-20T10:07:22.918Z,2652
2017-08-20T10:08:31.865Z,2680
2017-08-20T10:09:41.145Z,2220
2017-08-20T10:10:50.113Z,2316
2017-08-20T10:11:59.089Z,2592
2017-08-20T10:13:08.042Z,2412
2017-08-20T10:14:16.996Z,2552
2017-08-20T10:15:25.953Z,2672
2017-08-20T10:16:34.911Z,2792
2017-08-20T10:17:44.191Z,3400
2017-08-20T10:18:53.154Z,2760
2017-08-20T10:20:02.130Z,2548
2017-08-20T10:21:11.079Z,2708
2017-08-20T10:22:20.044Z,3028
2017-08-20T10:23:29.007Z,3008
2017-08-20T10:24:37.970Z,3012
2017-08-20T10:25:46.936Z,3052
2017-08-20T10:26:55.900Z,2116
2017-08-20T10:28:04.859Z,1300
2017-08-20T10:29:13.827Z,928
2017-08-20T10:30:22.800Z,808
2017-08-20T10:31:31.778Z,788
2017-08-20T10:32:40.744Z,752
2017-08-20T10:33:49.699Z,388
2017-08-20T10:34:58.665Z,280
2017-08-20T10:36:07.617Z,236
2017-08-20T10:37:16.585Z,260
2017-08-20T10:38:25.570Z,400
2017-08-20T10:39:34.535Z,432
2017-08-20T10:40:43.557Z,448
2017-08-20T10:41:52.516Z,572
2017-08-20T10:43:01.811Z,624
2017-08-20T10:44:10.855Z,700
2017-08-20T10:45:19.848Z,744
2017-08-20T10:46:28.809Z,836
2017-08-20T10:47:38.098Z,816
2017-08-20T10:48:47.060Z,824
2017-08-20T10:49:56.047Z,864
2017-08-20T10:51:05.012Z,1088
2017-08-20T10:52:13.975Z,1256
2017-08-20T10:53:23.252Z,1416
2017-08-20T10:54:32.218Z,1528
2017-08-20T10:55:41.186Z,1424
2017-08-20T10:56:50.151Z,1416
2017-08-20T10:57:59.112Z,1508
2017-08-20T10:59:08.188Z,1488
2017-08-20T11:00:17.140Z,1448
2017-08-20T11:01:26.097Z,1448
2017-08-20T11:02:35.149Z,1564
2017-08-20T11:03:44.168Z,1684
2017-08-20T11:04:53.450Z,1712
2017-08-20T11:06:02.414Z,1756
2017-08-20T11:07:11.404Z,1776
2017-08-20T11:08:20.369Z,2528
2017-08-20T11:09:29.332Z,2612
2017-08-20T11:10:38.286Z,2812
2017-08-20T11:11:47.249Z,2944
2017-08-20T11:12:56.204Z,2500
2017-08-20T11:14:05.165Z,1936
2017-08-20T11:15:14.221Z,1660
2017-08-20T11:16:23.176Z,1528
2017-08-20T11:17:32.128Z,1488
2017-08-20T11:18:41.082Z,1432
2017-08-20T11:19:50.369Z,1432
2017-08-20T11:20:59.326Z,1404
2017-08-20T11:22:08.288Z,1396
2017-08-20T11:23:17.250Z,1388
2017-08-20T11:24:26.208Z,1388
2017-08-20T11:25:35.166Z,1400
2017-08-20T11:26:44.136Z,1616
2017-08-20T11:27:53.099Z,1920
2017-08-20T11:29:02.061Z,1996
2017-08-20T11:30:11.018Z,2028
2017-08-20T11:31:19.990Z,2476
2017-08-20T11:32:29.277Z,1492
2017-08-20T11:33:38.237Z,1400
2017-08-20T11:34:47.202Z,1232
2017-08-20T11:35:56.162Z,1056
2017-08-20T11:37:05.128Z,1396
2017-08-20T11:38:14.086Z,1520
2017-08-20T11:39:23.695Z,2240
2017-08-20T11:40:32.649Z,1660
2017-08-20T11:41:41.603Z,1388
2017-08-20T11:42:50.570Z,1620
2017-08-20T11:43:59.620Z,1812
2017-08-20T11:45:08.599Z,1476
2017-08-20T11:46:17.560Z,1492
2017-08-20T11:47:26.516Z,1576
2017-08-20T11:48:35.474Z,1352
2017-08-20T11:49:44.426Z,1164
2017-08-20T11:50:53.391Z,1244
2017-08-20T11:52:02.351Z,1232
2017-08-20T11:53:11.303Z,1380
2017-08-20T11:54:20.269Z,1332
2017-08-20T11:55:29.236Z,1392
2017-08-20T11:56:38.189Z,1584
2017-08-20T11:57:47.468Z,1540
2017-08-20T11:58:56.428Z,1392
2017-08-20T12:00:05.391Z,1592
2017-08-20T12:01:14.357Z,1224
2017-08-20T12:02:23.319Z,1112
2017-08-20T12:03:32.269Z,1176
2017-08-20T12:04:41.263Z,1192
2017-08-20T12:05:50.218Z,668
2017-08-20T12:06:59.185Z,1016
2017-08-20T12:08:08.468Z,1188
2017-08-20T12:09:17.426Z,1296
2017-08-20T12:10:26.380Z,1244
2017-08-20T12:11:35.355Z,660
2017-08-20T12:12:44.315Z,660
2017-08-20T12:13:53.272Z,676
2017-08-20T12:15:02.578Z,1340
2017-08-20T12:16:11.538Z,1360
2017-08-20T12:17:20.504Z,1244
2017-08-20T12:18:29.469Z,1252
2017-08-20T12:19:38.435Z,1124
2017-08-20T12:20:47.726Z,1424
2017-08-20T12:21:56.687Z,1952
2017-08-20T12:23:05.649Z,1352
2017-08-20T12:24:14.604Z,2080
2017-08-20T12:25:23.567Z,1748
2017-08-20T12:26:32.526Z,1320
2017-08-20T12:27:41.485Z,1280
2017-08-20T12:28:50.448Z,1284
2017-08-20T12:29:59.406Z,840
2017-08-20T12:31:08.402Z,676
2017-08-20T12:32:17.363Z,1120
2017-08-20T12:33:26.327Z,1228
2017-08-20T12:34:37.386Z,900
2017-08-20T12:35:46.359Z,992
2017-08-20T12:36:55.328Z,1420
2017-08-20T12:38:04.717Z,972
2017-08-20T12:39:14.053Z,1532
2017-08-20T12:40:23.168Z,2112
2017-08-20T12:41:32.143Z,1568
2017-08-20T12:42:41.455Z,1716
2017-08-20T12:43:50.417Z,1492
2017-08-20T12:44:59.626Z,2360
2017-08-20T12:46:09.883Z,2132
2017-08-20T12:47:19.761Z,1508
2017-08-20T12:48:29.688Z,1328
2017-08-20T12:49:40.246Z,1232
2017-08-20T12:50:49.692Z,740
2017-08-20T12:52:05.185Z,1020
2017-08-20T12:53:18.209Z,712
2017-08-20T12:54:27.569Z,796
2017-08-20T12:55:37.000Z,1004
2017-08-20T12:56:46.286Z,924
2017-08-20T12:57:55.772Z,1460
2017-08-20T12:59:05.132Z,1732
2017-08-20T13:00:14.464Z,1988
2017-08-20T13:01:23.974Z,1848
2017-08-20T13:02:33.596Z,1896
2017-08-20T13:03:42.684Z,2020
2017-08-20T13:04:51.654Z,2260
2017-08-20T13:06:01.388Z,1524
2017-08-20T13:07:10.971Z,1224
2017-08-20T13:08:20.098Z,1144
2017-08-20T13:09:29.086Z,1352
2017-08-20T13:10:38.042Z,1224
2017-08-20T13:11:47.001Z,1216
2017-08-20T13:12:55.968Z,1388
2017-08-20T13:14:04.927Z,1412
2017-08-20T13:15:14.207Z,1384
2017-08-20T13:16:23.167Z,1392
2017-08-20T13:17:32.134Z,1280
2017-08-20T13:18:41.095Z,1148
2017-08-20T13:19:50.053Z,1124
2017-08-20T13:20:59.012Z,1116
2017-08-20T13:22:07.965Z,1108
2017-08-20T13:23:16.922Z,1108
2017-08-20T13:24:25.881Z,1136
2017-08-20T13:25:34.842Z,1136
2017-08-20T13:26:43.801Z,1132
2017-08-20T13:27:53.168Z,1140
2017-08-20T13:29:02.132Z,1116
2017-08-20T13:30:11.097Z,1124
2017-08-20T13:31:20.065Z,1140
2017-08-20T13:32:29.355Z,1172
2017-08-20T13:33:38.314Z,1252
2017-08-20T13:34:47.306Z,1232
2017-08-20T13:35:56.273Z,1216
2017-08-20T13:37:05.238Z,1236
2017-08-20T13:38:14.369Z,1340
2017-08-20T13:39:23.361Z,1304
2017-08-20T13:40:32.330Z,1284
2017-08-20T13:41:41.455Z,844
2017-08-20T13:42:50.462Z,1636
2017-08-20T13:43:59.421Z,1208
2017-08-20T13:45:08.699Z,1272
2017-08-20T13:46:17.719Z,1360
2017-08-20T13:47:26.681Z,1076
2017-08-20T13:48:36.111Z,1164
2017-08-20T13:49:45.065Z,1356
2017-08-20T13:50:54.032Z,936
2017-08-20T13:52:03.307Z,852
2017-08-20T13:53:12.770Z,876
2017-08-20T13:54:21.741Z,1584
2017-08-20T13:55:30.706Z,1424
2017-08-20T13:56:39.665Z,1608
2017-08-20T13:57:48.624Z,1664
2017-08-20T13:58:57.903Z,1868
2017-08-20T14:00:07.156Z,2072
2017-08-20T14:01:16.187Z,1916
2017-08-20T14:02:25.236Z,2160
2017-08-20T14:03:34.268Z,1656
2017-08-20T14:04:43.235Z,676
2017-08-20T14:05:52.245Z,736
2017-08-20T14:07:01.242Z,1368
2017-08-20T14:08:10.525Z,1524
2017-08-20T14:09:19.922Z,1508
2017-08-20T14:10:29.098Z,1328
2017-08-20T14:11:38.469Z,1304
2017-08-20T14:12:47.533Z,1372
2017-08-20T14:13:56.735Z,940
2017-08-20T14:15:05.714Z,976
2017-08-20T14:16:14.714Z,1348
2017-08-20T14:17:23.674Z,1340
2017-08-20T14:18:32.729Z,1416
2017-08-20T14:19:41.988Z,1776
2017-08-20T14:20:51.040Z,1800
2017-08-20T14:22:00.021Z,2212
2017-08-20T14:23:08.978Z,2220
2017-08-20T14:24:17.942Z,1888
2017-08-20T14:25:26.898Z,1700
2017-08-20T14:26:36.975Z,1784
2017-08-20T14:27:46.514Z,996
2017-08-20T14:28:55.473Z,1060
2017-08-20T14:30:04.453Z,1716
2017-08-20T14:31:13.435Z,1368
2017-08-20T14:32:22.459Z,984
2017-08-20T14:33:31.775Z,996
2017-08-20T14:34:40.772Z,1584
2017-08-20T14:35:49.740Z,1428
2017-08-20T14:36:58.696Z,1448
2017-08-20T14:38:07.661Z,1304
2017-08-20T14:39:16.620Z,1208
2017-08-20T14:40:25.594Z,1140
2017-08-20T14:41:34.564Z,632
2017-08-20T14:42:43.529Z,476
2017-08-20T14:43:52.499Z,424
2017-08-20T14:45:01.778Z,400
2017-08-20T14:46:10.740Z,456
2017-08-20T14:47:19.709Z,480
2017-08-20T14:48:28.685Z,428
2017-08-20T14:49:37.648Z,532
2017-08-20T14:50:46.614Z,540
2017-08-20T14:51:55.572Z,728
2017-08-20T14:53:04.535Z,928
2017-08-20T14:54:13.485Z,1152
2017-08-20T14:55:22.528Z,1320
2017-08-20T14:56:31.498Z,1636
2017-08-20T14:57:40.455Z,1632
2017-08-20T14:58:49.742Z,1004
2017-08-20T14:59:58.700Z,752
2017-08-20T15:01:07.653Z,708
2017-08-20T15:02:16.614Z,720
2017-08-20T15:03:25.583Z,716
2017-08-20T15:04:34.564Z,1052
2017-08-20T15:05:43.522Z,1412
2017-08-20T15:06:52.479Z,1256
2017-08-20T15:08:01.435Z,1352
2017-08-20T15:09:10.403Z,896
2017-08-20T15:10:19.365Z,1076
2017-08-20T15:11:28.324Z,968
2017-08-20T15:12:37.273Z,616
2017-08-20T15:13:46.263Z,840
2017-08-20T15:14:55.546Z,796
2017-08-20T15:16:04.965Z,764
2017-08-20T15:17:14.467Z,760
2017-08-20T15:18:23.424Z,752
2017-08-20T15:19:32.384Z,688
2017-08-20T15:20:41.341Z,748
2017-08-20T15:21:50.320Z,704
2017-08-20T15:22:59.280Z,708
2017-08-20T15:24:08.561Z,700
2017-08-20T15:25:17.515Z,696
2017-08-20T15:26:26.472Z,704
2017-08-20T15:27:35.431Z,912
2017-08-20T15:28:44.390Z,868
2017-08-20T15:29:53.353Z,780
2017-08-20T15:31:02.639Z,724
2017-08-20T15:32:11.603Z,692
2017-08-20T15:33:20.569Z,680
2017-08-20T15:34:29.525Z,668
2017-08-20T15:35:38.486Z,668
2017-08-20T15:36:47.447Z,772
2017-08-20T15:37:56.419Z,832
2017-08-20T15:39:05.381Z,692
2017-08-20T15:40:14.342Z,656
2017-08-20T15:41:23.298Z,612
2017-08-20T15:42:32.251Z,592
2017-08-20T15:43:41.242Z,572
2017-08-20T15:44:50.206Z,568
2017-08-20T15:45:59.167Z,560
2017-08-20T15:47:08.129Z,556
2017-08-20T15:48:17.103Z,556
2017-08-20T15:49:26.060Z,544
2017-08-20T15:50:35.070Z,536
2017-08-20T15:51:44.136Z,532
2017-08-20T15:52:53.168Z,524
2017-08-20T15:54:02.124Z,528
2017-08-20T15:55:11.085Z,516